createdAt,value
2023-05-04T11:07:12.575Z,60.3561
2023-05-04T11:08:12.908Z,58.5511
2023-05-04T11:09:12.876Z,57.7112
2023-05-04T11:10:13.132Z,57.1090
2023-05-04T11:11:13.468Z,57.1276
2023-05-04T11:12:13.652Z,56.8763
2023-05-04T11:13:14.011Z,56.4560
2023-05-04T11:14:14.223Z,56.6890
2023-05-04T11:15:15.034Z,56.2164
2023-05-04T11:16:15.556Z,55.7673
2023-05-04T11:17:28.310Z,55.7515
2023-05-04T11:18:19.733Z,55.6632
2023-05-04T11:19:20.026Z,55.8647
2023-05-04T11:20:20.243Z,55.9085
2023-05-04T11:21:20.323Z,55.8919
2023-05-04T11:22:20.604Z,55.6030
2023-05-04T11:23:20.573Z,55.4599
2023-05-04T11:24:20.772Z,55.6167
2023-05-04T11:25:21.964Z,54.3441
2023-05-04T11:26:22.589Z,54.3140
2023-05-04T11:27:22.869Z,53.4008
2023-05-04T11:28:24.073Z,53.3958
2023-05-04T11:29:24.464Z,53.1530
2023-05-04T11:30:24.830Z,52.4144
2023-05-04T11:31:25.750Z,52.1301
2023-05-04T11:32:25.928Z,51.4328
2023-05-04T11:33:26.419Z,50.7014
2023-05-04T11:34:26.581Z,50.8724
2023-05-04T11:35:26.691Z,50.2033
2023-05-04T11:36:27.291Z,49.0913
2023-05-04T11:37:27.430Z,48.6454
2023-05-04T11:38:27.588Z,49.0986
2023-05-04T11:39:27.890Z,47.8032
2023-05-04T11:40:28.797Z,47.9854
2023-05-04T11:41:29.052Z,46.7235
2023-05-04T11:42:29.600Z,47.0989
2023-05-04T11:43:29.690Z,46.9583
2023-05-04T11:44:29.800Z,47.2645
2023-05-04T11:45:29.946Z,45.7789
2023-05-04T11:46:30.208Z,44.5033
2023-05-04T11:47:30.825Z,44.7094
2023-05-04T11:48:31.229Z,44.7988
2023-05-04T11:49:31.448Z,44.9117
2023-05-04T11:50:31.830Z,44.8258
2023-05-04T11:51:31.924Z,45.6862
2023-05-04T11:52:32.184Z,45.3444
2023-05-04T11:53:32.944Z,44.5188
2023-05-04T11:54:32.943Z,44.1886
2023-05-04T11:55:33.613Z,43.8229
2023-05-04T11:56:33.737Z,42.7972
2023-05-04T11:57:33.891Z,44.2061
2023-05-04T11:58:34.199Z,42.4038
2023-05-04T11:59:34.224Z,42.2884
2023-05-04T12:00:34.667Z,40.8689
2023-05-04T12:01:35.550Z,40.0116
2023-05-04T12:02:35.739Z,38.6515
2023-05-04T12:03:53.175Z,37.9441
2023-05-04T12:04:41.025Z,39.3465
2023-05-04T12:05:41.362Z,38.8645
2023-05-04T12:06:41.696Z,40.2703
2023-05-04T12:07:42.080Z,41.8844
2023-05-04T12:08:42.420Z,42.0234
2023-05-04T12:09:42.810Z,42.8341
2023-05-04T12:10:43.177Z,41.0932
2023-05-04T12:11:43.426Z,40.3933
2023-05-04T12:12:44.616Z,36.9811
2023-05-04T12:13:44.925Z,37.8352
2023-05-04T12:14:45.239Z,38.2920
2023-05-04T12:15:45.351Z,38.6888
2023-05-04T12:16:45.879Z,37.8619
2023-05-04T12:17:46.316Z,38.6180
2023-05-04T12:18:46.415Z,39.5660
2023-05-04T12:19:46.705Z,39.1144
2023-05-04T12:20:47.061Z,37.5266
2023-05-04T12:21:48.278Z,36.2325
2023-05-04T12:22:48.563Z,35.9572
2023-05-04T12:23:48.909Z,37.0386
2023-05-04T12:24:48.947Z,38.2425
2023-05-04T12:25:58.020Z,36.4646
2023-05-04T12:26:53.498Z,36.8229
2023-05-04T12:27:53.670Z,36.6138
2023-05-04T12:28:53.922Z,35.8936
2023-05-04T12:32:54.935Z,37.3103
2023-05-04T12:33:55.261Z,37.9781
2023-05-04T12:34:55.292Z,37.1548
2023-05-04T12:35:55.612Z,37.1070
2023-05-04T12:36:55.773Z,36.9930
2023-05-04T12:37:55.987Z,36.6654
2023-05-04T12:38:56.269Z,36.1495
2023-05-04T12:39:56.451Z,37.7552
2023-05-04T12:40:56.521Z,37.1032
2023-05-04T12:41:56.849Z,37.7406
2023-05-04T12:42:56.976Z,37.2130
2023-05-04T12:43:57.047Z,37.7272
2023-05-04T12:44:57.329Z,35.6792
2023-05-04T12:45:57.916Z,35.2648
2023-05-04T12:46:58.764Z,35.2101
2023-05-04T12:47:59.007Z,37.4347
2023-05-04T12:48:59.447Z,39.5064
2023-05-04T12:50:00.059Z,38.5484
2023-05-04T12:51:00.310Z,36.2004
2023-05-04T12:52:00.336Z,37.1039
2023-05-04T12:53:00.608Z,38.0354
2023-05-04T12:54:00.851Z,36.1870
2023-05-04T12:55:01.172Z,36.1901
2023-05-04T12:56:01.805Z,37.1279
2023-05-04T12:57:03.014Z,37.6776
2023-05-04T12:58:03.170Z,36.1101
2023-05-04T12:59:03.661Z,35.7897
2023-05-04T13:00:03.863Z,35.2065
2023-05-04T13:01:04.678Z,35.1859
2023-05-04T13:02:05.257Z,36.3373
2023-05-04T13:03:06.192Z,34.8733
2023-05-04T13:04:06.802Z,34.4149
2023-05-04T13:05:07.191Z,34.8477
2023-05-04T13:06:08.163Z,34.1436
2023-05-04T13:07:08.582Z,33.7425
2023-05-04T13:08:08.820Z,34.5452
2023-05-04T13:09:09.176Z,34.5059
2023-05-04T13:10:09.737Z,32.3473
2023-05-04T13:11:09.916Z,33.1895
2023-05-04T13:12:10.662Z,33.1174
2023-05-04T13:13:11.114Z,33.6087
2023-05-04T13:14:11.418Z,34.2297
2023-05-04T13:15:11.667Z,35.2985
2023-05-04T13:16:11.999Z,34.7706
2023-05-04T13:17:12.745Z,34.0670
2023-05-04T13:18:13.353Z,33.8627
2023-05-04T13:19:13.633Z,33.4470
2023-05-04T13:20:14.034Z,33.5611
2023-05-04T13:21:14.626Z,34.0518
2023-05-04T13:22:14.849Z,34.1931
2023-05-04T13:23:15.369Z,34.3043
2023-05-04T13:24:15.660Z,33.1946
2023-05-04T13:25:16.499Z,32.5198
2023-05-04T13:26:16.857Z,32.7050
2023-05-04T13:27:16.985Z,33.2112
2023-05-04T13:28:17.392Z,31.9633
2023-05-04T13:29:17.746Z,32.6357
2023-05-04T13:30:18.097Z,32.6004
2023-05-04T13:31:18.525Z,33.9502
2023-05-04T13:32:19.265Z,34.5769
2023-05-04T13:33:28.808Z,34.8580
2023-05-04T13:34:20.287Z,32.0145
2023-05-04T13:35:20.972Z,31.6156
2023-05-04T13:36:22.150Z,30.9610
2023-05-04T13:37:22.414Z,30.7908
2023-05-04T13:38:22.795Z,32.0706
2023-05-04T13:39:23.027Z,31.4004
2023-05-04T13:40:23.306Z,31.3981
2023-05-04T13:41:23.565Z,30.4955
2023-05-04T13:42:23.654Z,31.4945
2023-05-04T13:43:24.779Z,32.3447
2023-05-04T13:44:25.089Z,32.4307
2023-05-04T13:45:25.899Z,33.1388
2023-05-04T13:46:26.218Z,32.8273
2023-05-04T13:47:26.705Z,32.9290
2023-05-04T13:48:27.526Z,32.5265
2023-05-04T13:49:27.838Z,33.0664
2023-05-04T13:50:27.914Z,32.4223
2023-05-04T13:51:28.228Z,33.5307
2023-05-04T13:52:28.588Z,33.4432
2023-05-04T13:53:28.733Z,33.8226
2023-05-04T13:54:30.011Z,33.3331
2023-05-04T13:55:30.683Z,32.8079
2023-05-04T13:56:30.778Z,32.5820
2023-05-04T13:57:31.033Z,33.1665
2023-05-04T13:58:31.307Z,32.8862
2023-05-04T13:59:31.421Z,32.7717
2023-05-04T14:00:31.992Z,32.5265
2023-05-04T14:01:32.275Z,32.5612
2023-05-04T14:02:33.386Z,31.5371
2023-05-04T14:03:34.201Z,32.0669
2023-05-04T14:04:34.970Z,32.2968
2023-05-04T14:05:34.850Z,32.2875
2023-05-04T14:06:35.051Z,32.2206
2023-05-04T14:07:35.094Z,32.8535
2023-05-04T14:08:35.418Z,33.2920
2023-05-04T14:09:35.735Z,32.6269
2023-05-04T14:10:37.257Z,32.0829
2023-05-04T14:11:36.623Z,32.1550
2023-05-04T14:12:36.811Z,32.9177
2023-05-04T14:13:37.284Z,31.8797
2023-05-04T14:14:37.582Z,31.8163
2023-05-04T14:15:38.082Z,31.3563
2023-05-04T14:16:39.305Z,31.9103
2023-05-04T14:17:39.897Z,33.2293
2023-05-04T14:18:40.381Z,32.4809
2023-05-04T14:19:40.695Z,31.1381
2023-05-04T14:20:41.206Z,31.2193
2023-05-04T14:21:41.351Z,31.4883
2023-05-04T14:22:41.527Z,31.7105
2023-05-04T14:23:41.678Z,31.5315
2023-05-04T14:24:42.044Z,32.2990
2023-05-04T14:25:42.856Z,33.0916
2023-05-04T14:26:43.158Z,32.4843
2023-05-04T14:27:43.478Z,32.1623
2023-05-04T14:28:43.976Z,31.6677
2023-05-04T14:29:46.421Z,32.1652
2023-05-04T14:30:45.358Z,34.7609
2023-05-04T14:31:45.675Z,32.2477
2023-05-04T14:32:46.247Z,32.3785
2023-05-04T14:33:46.652Z,32.2102
2023-05-04T14:34:46.751Z,31.9870
2023-05-04T14:35:48.293Z,32.0055
2023-05-04T14:36:47.412Z,32.5204
2023-05-04T14:37:47.724Z,31.9751
2023-05-04T14:38:48.036Z,31.8700
2023-05-04T14:39:48.208Z,31.4180
2023-05-04T14:40:49.810Z,31.1758
2023-05-04T14:41:50.434Z,31.3105
2023-05-04T14:42:50.571Z,31.3408
2023-05-04T14:43:51.102Z,31.9559
2023-05-04T14:44:51.349Z,32.5261
2023-05-04T14:45:51.642Z,32.5942
2023-05-04T14:46:52.040Z,33.1179
2023-05-04T14:47:52.448Z,33.3903
2023-05-04T14:48:52.871Z,33.7121
2023-05-04T14:49:53.988Z,33.3536
2023-05-04T14:50:54.479Z,32.8973
2023-05-04T14:51:54.966Z,32.9811
2023-05-04T14:52:55.416Z,32.5716
2023-05-04T14:53:55.647Z,32.1734
2023-05-04T14:54:55.927Z,33.1523
2023-05-04T14:55:56.259Z,32.0848
2023-05-04T14:56:57.603Z,31.4675
2023-05-04T14:57:58.070Z,31.8268
2023-05-04T14:58:58.491Z,32.4448
2023-05-04T14:59:58.625Z,33.5867
2023-05-04T15:00:59.634Z,33.4232
2023-05-04T15:02:00.154Z,33.1407
2023-05-04T15:03:01.040Z,32.8724
2023-05-04T15:04:01.108Z,32.1019
2023-05-04T15:05:01.246Z,31.5781
2023-05-04T15:06:01.588Z,31.6864
2023-05-04T15:07:01.769Z,31.5869
2023-05-04T15:08:02.441Z,33.3595
2023-05-04T15:09:02.874Z,33.9511
2023-05-04T15:10:03.160Z,33.7963
2023-05-04T15:11:04.198Z,34.8727
2023-05-04T15:12:04.742Z,33.4211
2023-05-04T15:13:04.926Z,33.2350
2023-05-04T15:14:05.386Z,32.7125
2023-05-04T15:15:05.606Z,32.7878
2023-05-04T15:16:06.015Z,32.4199
2023-05-04T15:17:06.747Z,32.4780
2023-05-04T15:18:07.151Z,32.5884
2023-05-04T15:19:07.633Z,32.7596
2023-05-04T15:20:08.739Z,32.9946
2023-05-04T15:21:09.373Z,32.8053
2023-05-04T15:22:09.837Z,33.1425
2023-05-04T15:23:10.286Z,34.0786
2023-05-04T15:24:10.415Z,34.0749
2023-05-04T15:25:11.082Z,34.5458
2023-05-04T15:26:11.245Z,33.7723
2023-05-04T15:27:11.652Z,35.0644
2023-05-04T15:28:12.252Z,34.5798
2023-05-04T15:29:13.513Z,34.5929
2023-05-04T15:30:13.891Z,34.5586
2023-05-04T15:31:14.531Z,33.4383
2023-05-04T15:32:14.948Z,34.2652
2023-05-04T15:33:15.729Z,32.6636
2023-05-04T15:34:20.044Z,32.1059
2023-05-04T15:35:20.518Z,34.5312
2023-05-04T15:36:20.864Z,35.9680
2023-05-04T15:37:21.372Z,35.7879
2023-05-04T15:38:21.927Z,35.9822
2023-05-04T15:39:22.161Z,34.8070
2023-05-04T15:40:22.760Z,35.4169
2023-05-04T15:41:23.726Z,34.9712
2023-05-04T15:42:24.096Z,35.6243
2023-05-04T15:43:24.493Z,35.2600
2023-05-04T15:44:24.904Z,35.9795
2023-05-04T15:45:25.293Z,35.2187
2023-05-04T15:46:25.542Z,35.1511
2023-05-04T15:47:26.514Z,35.4830
2023-05-04T15:48:27.041Z,36.1962
2023-05-04T15:49:27.301Z,35.1311
2023-05-04T15:50:28.232Z,34.2092
2023-05-04T15:51:28.673Z,33.4614
2023-05-04T15:52:28.953Z,33.5386
2023-05-04T15:53:29.457Z,34.8889
2023-05-04T15:54:30.063Z,35.3893
2023-05-04T15:55:31.064Z,35.6396
2023-05-04T15:56:31.826Z,34.7838
2023-05-04T15:57:32.295Z,34.2450
2023-05-04T15:58:32.506Z,34.1114
2023-05-04T15:59:33.169Z,36.2908
2023-05-04T16:00:33.765Z,36.6840
2023-05-04T16:01:34.192Z,36.7518
2023-05-04T16:02:35.016Z,35.5712
2023-05-04T16:03:35.907Z,35.8078
2023-05-04T16:04:36.608Z,36.1372
2023-05-04T16:05:37.202Z,35.9252
2023-05-04T16:06:37.458Z,35.7197
2023-05-04T16:07:37.698Z,35.4622
2023-05-04T16:08:38.115Z,36.1890
2023-05-04T16:09:39.391Z,36.2243
2023-05-04T16:11:39.226Z,37.0063
2023-05-04T16:12:39.976Z,37.2014
2023-05-04T16:13:40.961Z,36.8687
2023-05-04T16:14:41.141Z,38.2217
2023-05-04T16:15:41.765Z,37.6483
2023-05-04T16:16:42.350Z,37.5098
2023-05-04T16:17:42.969Z,39.1545
2023-05-04T16:18:43.513Z,37.9236
2023-05-04T16:19:44.595Z,38.1706
2023-05-04T16:20:45.794Z,38.8754
2023-05-04T16:21:46.924Z,38.1691
2023-05-04T16:22:47.461Z,36.7247
2023-05-04T16:23:47.776Z,36.9891
2023-05-04T16:24:48.445Z,38.9981
2023-05-04T16:25:48.855Z,39.5345
2023-05-04T16:26:50.014Z,38.7541
2023-05-04T16:27:50.577Z,39.2394
2023-05-04T16:28:50.936Z,38.9487
2023-05-04T16:29:51.434Z,40.2204
2023-05-04T16:30:52.520Z,40.0010
2023-05-04T16:31:53.164Z,39.1512
2023-05-04T16:32:53.293Z,38.2253
2023-05-04T16:33:54.094Z,36.0382
2023-05-04T16:34:54.253Z,35.2747
2023-05-04T16:35:54.929Z,34.9535
2023-05-04T16:36:55.188Z,34.9402
2023-05-04T16:37:55.382Z,35.2336
2023-05-04T16:38:56.093Z,36.9913
2023-05-04T16:39:56.330Z,38.4183
2023-05-04T16:40:56.788Z,38.3460
2023-05-04T16:41:58.100Z,38.2032
2023-05-04T16:42:59.376Z,38.3691
2023-05-04T16:44:00.141Z,37.3840
2023-05-04T16:45:00.619Z,37.0591
2023-05-04T16:46:01.044Z,36.9429
2023-05-04T16:47:01.712Z,37.8569
2023-05-04T16:48:02.268Z,38.4458
2023-05-04T16:49:02.996Z,37.0626
2023-05-04T16:50:03.400Z,35.5822
2023-05-04T16:51:04.008Z,35.0487
2023-05-04T16:52:04.669Z,35.1886
2023-05-04T16:53:05.541Z,36.2617
2023-05-04T16:54:05.770Z,35.6378
2023-05-04T16:55:08.484Z,35.6598
2023-05-04T16:56:07.182Z,35.3278
2023-05-04T16:57:07.755Z,35.6616
2023-05-04T16:58:07.745Z,36.4648
2023-05-04T16:59:08.418Z,36.4138
2023-05-04T17:00:08.969Z,35.7915
2023-05-04T17:01:11.116Z,36.5018
2023-05-04T17:02:10.354Z,37.2032
2023-05-04T17:03:10.271Z,37.3481
2023-05-04T17:04:10.513Z,36.6417
2023-05-04T17:05:10.937Z,36.1336
2023-05-04T17:06:11.928Z,36.5023
2023-05-04T17:07:12.863Z,37.0584
2023-05-04T17:08:13.207Z,37.7217
2023-05-04T17:09:14.881Z,37.4881
2023-05-04T17:10:14.060Z,37.8600
2023-05-04T17:11:15.119Z,38.2808
2023-05-04T17:12:16.238Z,37.1551
2023-05-04T17:13:16.796Z,37.1747
2023-05-04T17:14:17.912Z,37.3295
2023-05-04T17:15:18.598Z,36.7142
2023-05-04T17:16:18.679Z,36.2734
2023-05-04T17:17:18.802Z,37.2615
2023-05-04T17:18:19.590Z,37.1348
2023-05-04T17:19:20.241Z,37.7970
2023-05-04T17:20:21.368Z,38.0144
2023-05-04T17:21:22.300Z,37.4336
2023-05-04T17:22:22.869Z,36.9189
2023-05-04T17:23:23.754Z,36.8332
2023-05-04T17:24:24.461Z,37.6897
2023-05-04T17:25:25.181Z,37.8891
2023-05-04T17:26:25.793Z,38.3123
2023-05-04T17:27:26.223Z,38.7896
2023-05-04T17:28:27.199Z,38.0079
2023-05-04T17:29:27.654Z,38.3870
2023-05-04T17:30:28.213Z,38.6911
2023-05-04T17:31:29.488Z,38.9888
2023-05-04T17:32:30.329Z,40.2953
2023-05-04T17:33:30.645Z,40.1398
2023-05-04T17:34:31.176Z,38.7583
2023-05-04T17:35:31.572Z,38.3733
2023-05-04T17:36:32.535Z,37.9910
2023-05-04T17:37:33.361Z,38.6927
2023-05-04T17:38:34.393Z,39.7568
2023-05-04T17:39:35.019Z,39.4822
2023-05-04T17:40:35.720Z,39.2128
2023-05-04T17:41:36.850Z,39.4161
2023-05-04T17:42:37.744Z,38.7302
2023-05-04T17:43:38.286Z,38.7039
2023-05-04T17:44:38.926Z,38.7321
2023-05-04T17:45:39.448Z,38.2518
2023-05-04T17:46:40.892Z,38.3475
2023-05-04T17:48:41.340Z,39.3482
2023-05-04T17:49:42.011Z,39.8657
2023-05-04T17:50:42.436Z,40.5676
2023-05-04T17:51:43.491Z,41.0354
2023-05-04T17:52:43.877Z,41.5536
2023-05-04T17:53:45.826Z,42.6282
2023-05-04T17:55:45.308Z,42.8559
2023-05-04T17:56:45.839Z,43.7258
2023-05-04T17:57:46.504Z,43.5196
2023-05-04T17:58:46.797Z,42.7028
2023-05-04T17:59:47.392Z,43.7901
2023-05-04T18:00:48.673Z,44.4320
2023-05-04T18:01:48.223Z,43.4049
2023-05-04T18:02:49.314Z,44.5592
2023-05-04T18:03:49.520Z,45.4701
2023-05-04T18:04:50.316Z,45.2002
2023-05-04T18:05:51.007Z,45.4555
2023-05-04T18:06:51.404Z,45.4211
2023-05-04T18:07:51.866Z,45.7855
2023-05-04T18:08:51.946Z,46.1935
2023-05-04T18:09:52.542Z,46.1665
2023-05-04T18:10:52.840Z,46.5333
2023-05-04T18:11:53.901Z,46.6341
2023-05-04T18:13:54.605Z,47.7816
2023-05-04T18:14:55.363Z,47.9959
2023-05-04T18:15:56.089Z,47.0773
2023-05-04T18:16:57.108Z,46.6942
2023-05-04T18:17:57.876Z,47.3503
2023-05-04T18:19:00.446Z,46.9784
2023-05-04T18:20:01.314Z,47.4781
2023-05-04T18:21:01.684Z,47.6281
2023-05-04T18:22:02.928Z,48.2662
2023-05-04T18:23:03.585Z,47.8829
2023-05-04T18:24:04.164Z,46.7973
2023-05-04T18:25:04.630Z,48.0480
2023-05-04T18:26:05.144Z,48.4370
2023-05-04T18:27:06.249Z,49.5957
2023-05-04T18:28:06.978Z,50.6425
2023-05-04T18:29:17.824Z,50.7820
2023-05-04T18:30:08.476Z,51.0543
2023-05-04T18:31:08.390Z,51.2445
2023-05-04T18:32:08.984Z,51.8138
2023-05-04T18:33:09.948Z,51.8785
2023-05-04T18:34:10.911Z,52.1991
2023-05-04T18:35:11.119Z,52.9426
2023-05-04T18:36:11.149Z,52.9085
2023-05-04T18:37:11.537Z,53.9400
2023-05-04T18:38:12.518Z,54.3893
2023-05-04T18:39:13.248Z,54.2999
2023-05-04T18:40:14.417Z,54.1085
2023-05-04T18:41:15.609Z,54.7838
2023-05-04T18:42:16.671Z,55.1921
2023-05-04T18:43:17.529Z,55.0541
2023-05-04T18:44:18.133Z,54.8999
2023-05-04T18:45:19.029Z,54.9163
2023-05-04T18:46:19.889Z,54.3626
2023-05-04T18:47:20.878Z,54.6699
2023-05-04T18:48:21.138Z,55.0636
2023-05-04T18:49:21.455Z,55.4812
2023-05-04T18:50:21.741Z,56.6015
2023-05-04T18:51:22.210Z,57.1709
2023-05-04T18:52:22.703Z,57.2182
2023-05-04T18:53:23.424Z,57.0101
2023-05-04T18:54:24.063Z,56.8597
2023-05-04T18:55:24.614Z,56.3436
2023-05-04T18:56:25.081Z,55.4147
2023-05-04T18:57:26.206Z,54.9161
2023-05-04T18:58:26.165Z,54.3403
2023-05-04T18:59:26.824Z,54.1869
2023-05-04T19:00:28.308Z,54.1438
2023-05-04T19:01:29.453Z,53.3761
2023-05-04T19:02:29.490Z,53.1597
2023-05-04T19:03:30.752Z,53.1259
2023-05-04T19:04:31.689Z,52.3706
2023-05-04T19:05:32.220Z,52.7776
2023-05-04T19:06:32.693Z,52.4279
2023-05-04T19:07:33.562Z,51.9725
2023-05-04T19:08:34.717Z,52.3870
2023-05-04T19:09:35.246Z,52.0538
2023-05-04T19:10:35.770Z,52.0126
2023-05-04T19:11:36.002Z,52.1383
2023-05-04T19:12:36.777Z,51.9500
2023-05-04T19:13:37.641Z,51.6346
2023-05-04T19:14:38.909Z,52.3917
2023-05-04T19:15:39.485Z,51.5576
2023-05-04T19:16:40.288Z,51.9420
2023-05-04T19:17:40.668Z,52.2158
2023-05-04T19:18:41.490Z,51.7769
2023-05-04T19:19:42.287Z,51.5999
2023-05-04T19:20:42.633Z,50.7596
2023-05-04T19:21:43.319Z,51.1206
2023-05-04T19:22:43.864Z,51.4955
2023-05-04T19:23:44.254Z,51.0358
2023-05-04T19:24:44.796Z,50.9492
2023-05-04T19:25:45.203Z,51.2028
2023-05-04T19:26:45.609Z,51.5079
2023-05-04T19:27:47.062Z,51.4913
2023-05-04T19:28:47.639Z,50.9714
2023-05-04T19:29:47.959Z,51.4016
2023-05-04T19:30:48.743Z,51.4093
2023-05-04T19:31:49.626Z,51.1756
2023-05-04T19:32:49.819Z,51.1401
2023-05-04T19:33:50.890Z,51.2426
2023-05-04T19:34:51.823Z,50.8771
2023-05-04T19:35:52.246Z,50.5938
2023-05-04T19:36:52.916Z,50.5009
2023-05-04T19:37:53.339Z,51.1239
2023-05-04T19:38:54.110Z,50.9384
2023-05-04T19:39:54.881Z,51.1091
2023-05-04T19:40:55.262Z,51.0046
2023-05-04T19:41:55.834Z,50.8795
2023-05-04T19:42:56.432Z,51.2289
2023-05-04T19:43:56.931Z,50.9658
2023-05-04T19:44:57.697Z,50.9047
2023-05-04T19:45:58.149Z,51.0638
2023-05-04T19:46:58.918Z,51.3115
2023-05-04T19:47:59.765Z,51.4829
2023-05-04T19:49:00.162Z,51.5652
2023-05-04T19:50:00.979Z,51.6394
2023-05-04T19:52:01.156Z,52.2431
2023-05-04T19:53:01.703Z,52.5779
2023-05-04T19:54:02.080Z,52.9830
2023-05-04T19:55:02.750Z,52.9105
2023-05-04T19:56:03.373Z,52.8563
2023-05-04T19:57:03.853Z,52.5590
2023-05-04T19:58:04.421Z,52.5931
2023-05-04T19:59:04.950Z,52.9118
2023-05-04T20:00:05.421Z,53.4055
2023-05-04T20:01:06.140Z,53.7892
2023-05-04T20:02:06.910Z,53.9860
2023-05-04T20:03:07.703Z,54.0109
2023-05-04T20:04:08.427Z,54.2479
2023-05-04T20:05:08.837Z,54.5044
2023-05-04T20:06:09.278Z,54.5538
2023-05-04T20:07:09.851Z,54.2211
2023-05-04T20:08:10.428Z,54.4944
2023-05-04T20:09:11.126Z,54.4261
2023-05-04T20:10:12.389Z,54.5872
2023-05-04T20:11:12.735Z,54.7870
2023-05-04T20:12:13.355Z,54.9853
2023-05-04T20:13:14.480Z,55.2735
2023-05-04T20:14:14.857Z,55.6107
2023-05-04T20:15:15.472Z,55.1684
2023-05-04T20:16:16.238Z,55.6522
2023-05-04T20:17:16.949Z,55.8310
2023-05-04T20:18:17.685Z,55.4645
2023-05-04T20:19:18.074Z,55.2275
2023-05-04T20:20:18.644Z,55.2236
2023-05-04T20:21:19.083Z,55.1683
2023-05-04T20:22:19.470Z,55.0742
2023-05-04T20:23:20.141Z,55.3958
2023-05-04T20:24:20.771Z,55.4926
2023-05-04T20:25:21.156Z,55.3513
2023-05-04T20:26:22.729Z,55.3318
2023-05-04T20:27:23.185Z,55.7946
2023-05-04T20:30:23.717Z,54.9982
2023-05-04T20:31:24.808Z,55.1920
2023-05-04T20:32:25.495Z,55.1345
2023-05-04T20:33:25.478Z,54.9878
2023-05-04T20:34:26.583Z,55.2891
2023-05-04T20:37:36.853Z,55.6790
2023-05-04T20:38:37.944Z,56.3292
2023-05-04T20:41:04.770Z,55.7327
2023-05-04T20:42:05.443Z,56.1850
2023-05-04T20:43:05.874Z,56.8225
2023-05-04T20:44:06.400Z,56.8443
2023-05-04T20:45:07.167Z,56.7614
2023-05-04T20:46:07.765Z,57.1237
2023-05-04T20:47:08.713Z,57.2725
2023-05-04T20:48:09.732Z,57.3978
2023-05-04T20:49:10.317Z,57.4998
2023-05-04T20:51:14.650Z,57.6573
2023-05-04T20:52:12.116Z,58.0451
2023-05-04T20:53:12.673Z,58.3396
2023-05-04T20:54:13.331Z,58.6603
2023-05-04T20:55:14.864Z,58.8831
2023-05-04T20:56:16.128Z,58.6783
2023-05-04T20:58:16.397Z,59.5791
2023-05-04T20:59:17.037Z,59.9678
2023-05-04T21:00:17.631Z,60.4637
2023-05-04T21:01:18.888Z,60.6848
2023-05-04T21:04:18.753Z,61.9318
2023-05-04T21:05:19.286Z,62.0516
2023-05-04T21:06:19.879Z,62.5288
2023-05-04T21:07:20.412Z,62.7711
2023-05-04T21:08:20.922Z,63.0135
2023-05-04T21:09:21.382Z,62.9145
2023-05-04T21:10:22.088Z,62.8862
2023-05-04T21:11:22.825Z,63.2785
2023-05-04T21:12:23.354Z,63.1553
2023-05-04T21:13:24.259Z,63.7941
2023-05-04T21:14:24.726Z,64.3660
2023-05-04T21:15:25.303Z,64.9963
2023-05-04T21:16:26.228Z,65.3762
2023-05-04T21:17:26.643Z,65.0363
2023-05-04T21:18:27.331Z,66.3728
2023-05-04T21:19:28.153Z,66.8151
2023-05-04T21:20:29.161Z,66.3967
2023-05-04T21:21:29.954Z,66.5145
2023-05-04T21:22:30.662Z,66.6840
2023-05-04T21:23:31.287Z,66.6757
2023-05-04T21:24:32.288Z,67.1462
2023-05-04T21:25:32.889Z,67.0846
2023-05-04T21:26:33.558Z,67.0562
2023-05-04T21:27:34.204Z,67.6567
2023-05-04T21:28:34.261Z,67.9293
2023-05-04T21:29:34.977Z,68.2321
2023-05-04T21:30:35.712Z,68.4199
2023-05-04T21:31:36.397Z,68.3471
2023-05-04T21:32:37.639Z,68.0895
2023-05-04T21:33:38.694Z,67.9886
2023-05-04T21:34:39.322Z,67.7472
2023-05-04T21:35:40.037Z,67.4953
2023-05-04T21:36:40.620Z,67.2410
2023-05-04T21:37:41.239Z,67.0332
2023-05-04T21:38:43.078Z,67.4076
2023-05-04T21:39:43.356Z,67.7551
2023-05-04T21:40:43.526Z,67.8254
2023-05-04T21:41:44.099Z,67.4566
2023-05-04T21:42:44.778Z,67.5982
2023-05-04T21:43:45.546Z,67.1876
2023-05-04T21:44:46.033Z,67.0493
2023-05-04T21:45:47.316Z,67.6404
2023-05-04T21:46:48.464Z,67.9848
2023-05-04T21:48:59.584Z,67.5970
2023-05-04T21:50:00.429Z,67.8656
2023-05-04T21:51:00.916Z,68.1035
2023-05-04T21:52:01.639Z,68.0685
2023-05-04T21:53:02.369Z,68.3659
2023-05-04T21:54:03.719Z,68.2459
2023-05-04T21:55:03.171Z,68.6611
2023-05-04T21:56:03.686Z,69.0104
2023-05-04T21:57:04.361Z,69.4243
2023-05-04T21:58:05.135Z,69.6982
2023-05-04T21:59:06.812Z,70.1361
2023-05-04T22:01:06.446Z,70.3120
2023-05-04T22:02:07.644Z,70.0176
2023-05-04T22:03:08.526Z,70.1491
2023-05-04T22:04:09.276Z,70.1468
2023-05-04T22:05:10.113Z,70.4694
2023-05-04T22:06:10.850Z,70.9578
2023-05-04T22:07:11.614Z,70.5936
2023-05-04T22:08:12.587Z,70.8393
2023-05-04T22:09:13.109Z,70.1604
2023-05-04T22:10:14.255Z,69.2458
2023-05-04T22:11:15.204Z,68.9413
2023-05-04T22:12:15.631Z,69.0752
2023-05-04T22:13:16.428Z,68.6594
2023-05-04T22:14:17.083Z,68.2888
2023-05-04T22:15:17.559Z,68.3609
2023-05-04T22:16:18.482Z,67.9925
2023-05-04T22:17:19.597Z,68.3888
2023-05-04T22:18:20.572Z,68.5822
2023-05-04T22:19:21.328Z,68.4704
2023-05-04T22:20:22.263Z,68.2835
2023-05-04T22:21:22.852Z,68.0976
2023-05-04T22:22:23.547Z,68.4418
2023-05-04T22:23:24.174Z,68.5438
2023-05-04T22:24:24.856Z,68.9304
2023-05-04T22:25:25.230Z,69.0593
2023-05-04T22:26:26.010Z,68.7035
2023-05-04T22:27:27.235Z,69.1469
2023-05-04T22:28:27.984Z,68.9869
2023-05-04T22:29:28.436Z,68.8735
2023-05-04T22:30:29.147Z,68.5120
2023-05-04T22:31:30.019Z,67.9727
2023-05-04T22:32:30.972Z,67.8377
2023-05-04T22:33:31.967Z,67.1641
2023-05-04T22:34:32.569Z,66.9451
2023-05-04T22:35:33.345Z,66.4180
2023-05-04T22:36:34.556Z,66.4930
2023-05-04T22:37:35.786Z,66.7225
2023-05-04T22:38:36.600Z,67.2993
2023-05-04T22:39:37.095Z,66.9635
2023-05-04T22:40:39.288Z,65.9680
2023-05-04T22:41:38.583Z,66.1978
2023-05-04T22:42:39.217Z,65.6916
2023-05-04T22:43:39.938Z,65.3651
2023-05-04T22:44:41.308Z,64.9885
2023-05-04T22:45:40.551Z,65.0401
2023-05-04T22:47:24.167Z,64.9265
2023-05-04T22:48:24.449Z,64.7263
2023-05-04T22:49:26.017Z,65.1645
2023-05-04T22:51:25.681Z,65.1916
2023-05-04T22:52:27.543Z,65.4472
2023-05-04T22:54:27.150Z,65.4343
2023-05-04T22:55:27.713Z,65.4358
2023-05-04T22:56:28.114Z,65.5030
2023-05-04T22:57:28.899Z,65.1751
2023-05-04T22:58:29.590Z,64.9161
2023-05-04T22:59:29.860Z,64.6213
2023-05-04T23:00:30.694Z,63.9498
2023-05-04T23:01:31.699Z,63.9375
2023-05-04T23:02:31.685Z,63.6143
2023-05-04T23:03:32.097Z,63.1078
2023-05-04T23:04:33.065Z,62.6080
2023-05-04T23:05:33.684Z,62.7951
2023-05-04T23:06:34.332Z,63.3287
2023-05-04T23:07:34.816Z,64.2567
2023-05-04T23:08:35.666Z,64.8432
2023-05-04T23:09:36.090Z,65.2026
2023-05-04T23:10:37.426Z,65.8536
2023-05-04T23:11:38.119Z,66.8656
2023-05-04T23:12:38.782Z,66.9741
2023-05-04T23:13:39.664Z,67.0987
2023-05-04T23:14:40.408Z,67.8945
2023-05-04T23:15:40.870Z,67.5838
2023-05-04T23:16:41.732Z,68.0637
2023-05-04T23:17:42.554Z,67.6483
2023-05-04T23:18:43.236Z,68.0797
2023-05-04T23:19:43.825Z,67.6516
2023-05-04T23:20:44.276Z,67.6738
2023-05-04T23:21:44.919Z,67.5890
2023-05-04T23:22:45.547Z,67.3397
2023-05-04T23:23:46.007Z,67.5109
2023-05-04T23:24:46.777Z,67.1582
2023-05-04T23:25:47.477Z,66.9771
2023-05-04T23:26:47.987Z,66.8223
2023-05-04T23:27:48.741Z,66.5877
2023-05-04T23:28:49.150Z,66.7685
2023-05-04T23:29:49.829Z,66.8340
2023-05-04T23:30:50.425Z,66.6737
2023-05-04T23:31:51.253Z,66.0312
2023-05-04T23:32:52.216Z,65.1424
2023-05-04T23:33:53.135Z,64.8226
2023-05-04T23:34:53.760Z,65.0408
2023-05-04T23:35:54.536Z,65.0249
2023-05-04T23:36:55.129Z,64.5283
2023-05-04T23:37:55.896Z,64.6257
2023-05-04T23:38:56.914Z,64.5441
2023-05-04T23:39:57.449Z,64.4691
2023-05-04T23:40:58.626Z,64.0553
2023-05-04T23:41:59.303Z,63.8503